sensor_id;sensor_type;location;lat;lon;timestamp;P1;P2;P0
50866;PMS7003;36839;51.946;21.002;2022-10-16T00:01:23;37.00;33.25;24.00
50866;PMS7003;36839;51.946;21.002;2022-10-16T00:03:51;46.25;39.00;25.50
50866;PMS7003;36839;51.946;21.002;2022-10-16T00:06:20;45.75;34.75;22.25
50866;PMS7003;36839;51.946;21.002;2022-10-16T00:08:47;34.25;31.75;22.50
50866;PMS7003;36839;51.946;21.002;2022-10-16T00:11:21;42.50;33.25;23.25
50866;PMS7003;36839;51.946;21.002;2022-10-16T00:13:50;38.00;31.00;23.00
50866;PMS7003;36839;51.946;21.002;2022-10-16T00:16:18;40.00;34.25;22.75
50866;PMS7003;36839;51.946;21.002;2022-10-16T00:18:47;40.25;33.00;22.00
50866;PMS7003;36839;51.946;21.002;2022-10-16T00:21:17;45.00;36.50;24.75
50866;PMS7003;36839;51.946;21.002;2022-10-16T00:23:55;41.50;36.50;25.75
50866;PMS7003;36839;51.946;21.002;2022-10-16T00:26:28;45.00;36.50;25.50
50866;PMS7003;36839;51.946;21.002;2022-10-16T00:28:59;40.50;34.50;26.00
50866;PMS7003;36839;51.946;21.002;2022-10-16T00:31:28;37.50;34.75;23.00
50866;PMS7003;36839;51.946;21.002;2022-10-16T00:33:57;37.75;33.00;22.00
50866;PMS7003;36839;51.946;21.002;2022-10-16T00:36:24;34.25;29.75;21.75
50866;PMS7003;36839;51.946;21.002;2022-10-16T00:38:57;47.25;37.75;25.75
50866;PMS7003;36839;51.946;21.002;2022-10-16T00:41:21;46.50;36.50;24.50
50866;PMS7003;36839;51.946;21.002;2022-10-16T00:43:55;45.00;35.75;24.50
50866;PMS7003;36839;51.946;21.002;2022-10-16T00:49:09;47.25;37.75;25.25
50866;PMS7003;36839;51.946;21.002;2022-10-16T00:51:47;35.75;33.25;23.75
50866;PMS7003;36839;51.946;21.002;2022-10-16T00:54:19;42.75;36.25;24.25
50866;PMS7003;36839;51.946;21.002;2022-10-16T00:56:53;39.25;33.25;23.00
50866;PMS7003;36839;51.946;21.002;2022-10-16T00:59:25;37.75;35.75;24.75
50866;PMS7003;36839;51.946;21.002;2022-10-16T01:01:54;37.25;34.50;25.50
50866;PMS7003;36839;51.946;21.002;2022-10-16T01:04:23;44.50;37.25;25.50
50866;PMS7003;36839;51.946;21.002;2022-10-16T01:09:34;48.50;37.25;26.75
50866;PMS7003;36839;51.946;21.002;2022-10-16T01:12:10;45.00;36.75;25.50
50866;PMS7003;36839;51.946;21.002;2022-10-16T01:14:59;47.50;36.50;25.25
50866;PMS7003;36839;51.946;21.002;2022-10-16T01:17:30;42.25;36.50;25.25
50866;PMS7003;36839;51.946;21.002;2022-10-16T01:20:06;42.00;36.00;25.25
50866;PMS7003;36839;51.946;21.002;2022-10-16T01:25:25;43.00;35.00;24.00
50866;PMS7003;36839;51.946;21.002;2022-10-16T01:27:53;36.50;34.00;25.50
50866;PMS7003;36839;51.946;21.002;2022-10-16T01:30:21;28.75;24.75;17.00
50866;PMS7003;36839;51.946;21.002;2022-10-16T01:32:55;45.25;36.00;24.25
50866;PMS7003;36839;51.946;21.002;2022-10-16T01:38:11;36.25;32.75;22.00
50866;PMS7003;36839;51.946;21.002;2022-10-16T01:40:44;41.75;33.00;21.00
50866;PMS7003;36839;51.946;21.002;2022-10-16T01:43:14;45.00;34.50;22.50
50866;PMS7003;36839;51.946;21.002;2022-10-16T01:45:42;42.00;35.25;24.50
50866;PMS7003;36839;51.946;21.002;2022-10-16T01:48:13;51.75;36.50;25.25
50866;PMS7003;36839;51.946;21.002;2022-10-16T01:50:42;46.50;36.75;25.75
50866;PMS7003;36839;51.946;21.002;2022-10-16T01:53:12;45.75;36.75;25.50
50866;PMS7003;36839;51.946;21.002;2022-10-16T01:55:45;37.75;34.00;23.25
50866;PMS7003;36839;51.946;21.002;2022-10-16T01:58:13;37.75;32.00;22.75
50866;PMS7003;36839;51.946;21.002;2022-10-16T02:00:44;40.25;35.00;24.75
50866;PMS7003;36839;51.946;21.002;2022-10-16T02:03:16;46.75;38.50;25.25
50866;PMS7003;36839;51.946;21.002;2022-10-16T02:05:47;41.25;34.00;24.25
50866;PMS7003;36839;51.946;21.002;2022-10-16T02:08:22;45.75;37.25;25.50
50866;PMS7003;36839;51.946;21.002;2022-10-16T02:10:56;40.50;36.75;25.75
50866;PMS7003;36839;51.946;21.002;2022-10-16T02:13:26;41.25;31.50;21.25
50866;PMS7003;36839;51.946;21.002;2022-10-16T02:15:53;46.00;37.00;23.75
50866;PMS7003;36839;51.946;21.002;2022-10-16T02:18:21;43.75;37.00;25.50
50866;PMS7003;36839;51.946;21.002;2022-10-16T02:20:58;38.00;32.50;22.75
50866;PMS7003;36839;51.946;21.002;2022-10-16T02:23:37;38.25;32.50;23.25
50866;PMS7003;36839;51.946;21.002;2022-10-16T02:26:06;36.50;33.50;24.25
50866;PMS7003;36839;51.946;21.002;2022-10-16T02:28:42;38.75;35.00;23.50
50866;PMS7003;36839;51.946;21.002;2022-10-16T02:31:11;33.00;31.25;21.00
50866;PMS7003;36839;51.946;21.002;2022-10-16T02:33:43;33.00;30.25;21.50
50866;PMS7003;36839;51.946;21.002;2022-10-16T02:36:13;38.75;35.25;22.25
50866;PMS7003;36839;51.946;21.002;2022-10-16T02:38:43;37.00;33.00;22.25
50866;PMS7003;36839;51.946;21.002;2022-10-16T02:41:11;39.75;34.75;24.25
50866;PMS7003;36839;51.946;21.002;2022-10-16T02:43:37;42.50;34.25;23.00
50866;PMS7003;36839;51.946;21.002;2022-10-16T02:46:09;36.75;33.50;23.25
50866;PMS7003;36839;51.946;21.002;2022-10-16T02:48:36;34.25;33.25;22.75
50866;PMS7003;36839;51.946;21.002;2022-10-16T02:51:05;37.25;31.00;23.00
50866;PMS7003;36839;51.946;21.002;2022-10-16T02:53:35;41.00;36.00;24.75
50866;PMS7003;36839;51.946;21.002;2022-10-16T02:56:06;40.25;33.00;25.00
50866;PMS7003;36839;51.946;21.002;2022-10-16T02:58:34;45.75;35.75;24.50
50866;PMS7003;36839;51.946;21.002;2022-10-16T03:01:03;37.00;34.75;23.00
50866;PMS7003;36839;51.946;21.002;2022-10-16T03:03:29;40.75;33.00;22.75
50866;PMS7003;36839;51.946;21.002;2022-10-16T03:05:58;41.25;34.75;24.50
50866;PMS7003;36839;51.946;21.002;2022-10-16T03:08:26;42.50;34.50;23.50
50866;PMS7003;36839;51.946;21.002;2022-10-16T03:10:56;40.75;36.75;25.75
50866;PMS7003;36839;51.946;21.002;2022-10-16T03:13:22;34.25;32.00;24.50
50866;PMS7003;36839;51.946;21.002;2022-10-16T03:15:50;47.75;36.00;25.25
50866;PMS7003;36839;51.946;21.002;2022-10-16T03:18:22;43.00;34.50;23.50
50866;PMS7003;36839;51.946;21.002;2022-10-16T03:20:49;48.25;38.25;26.00
50866;PMS7003;36839;51.946;21.002;2022-10-16T03:23:16;46.50;38.50;26.25
50866;PMS7003;36839;51.946;21.002;2022-10-16T03:25:47;42.50;36.25;25.75
50866;PMS7003;36839;51.946;21.002;2022-10-16T03:28:13;38.75;36.25;25.25
50866;PMS7003;36839;51.946;21.002;2022-10-16T03:30:42;41.00;34.75;25.00
50866;PMS7003;36839;51.946;21.002;2022-10-16T03:33:11;37.50;33.75;23.75
50866;PMS7003;36839;51.946;21.002;2022-10-16T03:35:39;35.50;32.25;23.25
50866;PMS7003;36839;51.946;21.002;2022-10-16T03:38:10;42.50;34.00;23.75
50866;PMS7003;36839;51.946;21.002;2022-10-16T03:40:36;38.25;34.00;23.75
50866;PMS7003;36839;51.946;21.002;2022-10-16T03:43:07;36.75;33.50;25.00
50866;PMS7003;36839;51.946;21.002;2022-10-16T03:45:37;46.50;35.75;24.75
50866;PMS7003;36839;51.946;21.002;2022-10-16T03:48:09;47.25;37.00;24.75
50866;PMS7003;36839;51.946;21.002;2022-10-16T03:50:36;36.50;32.25;24.75
50866;PMS7003;36839;51.946;21.002;2022-10-16T03:53:03;38.25;32.50;23.75
50866;PMS7003;36839;51.946;21.002;2022-10-16T03:55:30;38.25;32.75;24.00
50866;PMS7003;36839;51.946;21.002;2022-10-16T03:58:00;38.75;35.25;24.50
50866;PMS7003;36839;51.946;21.002;2022-10-16T04:00:32;38.00;33.75;24.00
50866;PMS7003;36839;51.946;21.002;2022-10-16T04:03:03;34.00;31.75;23.75
50866;PMS7003;36839;51.946;21.002;2022-10-16T04:05:31;28.50;24.75;16.50
50866;PMS7003;36839;51.946;21.002;2022-10-16T04:07:58;38.75;32.50;22.25
50866;PMS7003;36839;51.946;21.002;2022-10-16T04:10:26;36.75;31.75;23.25
50866;PMS7003;36839;51.946;21.002;2022-10-16T04:12:56;41.75;34.75;23.75
50866;PMS7003;36839;51.946;21.002;2022-10-16T04:15:24;35.25;31.00;20.00
50866;PMS7003;36839;51.946;21.002;2022-10-16T04:17:51;36.75;29.75;21.25
50866;PMS7003;36839;51.946;21.002;2022-10-16T04:20:18;37.75;32.75;21.25
50866;PMS7003;36839;51.946;21.002;2022-10-16T04:22:48;42.50;33.75;22.00
50866;PMS7003;36839;51.946;21.002;2022-10-16T04:25:14;41.25;32.00;21.25
50866;PMS7003;36839;51.946;21.002;2022-10-16T04:27:41;33.75;32.00;22.00
50866;PMS7003;36839;51.946;21.002;2022-10-16T04:30:08;34.00;30.00;21.50
50866;PMS7003;36839;51.946;21.002;2022-10-16T04:32:35;35.50;29.50;20.50
50866;PMS7003;36839;51.946;21.002;2022-10-16T04:35:03;37.75;31.50;20.00
50866;PMS7003;36839;51.946;21.002;2022-10-16T04:37:31;33.25;30.25;21.25
50866;PMS7003;36839;51.946;21.002;2022-10-16T04:39:59;34.25;30.75;19.75
50866;PMS7003;36839;51.946;21.002;2022-10-16T04:42:29;39.00;33.50;22.75
50866;PMS7003;36839;51.946;21.002;2022-10-16T04:44:55;39.75;32.00;22.75
50866;PMS7003;36839;51.946;21.002;2022-10-16T04:47:25;33.00;30.75;21.50
50866;PMS7003;36839;51.946;21.002;2022-10-16T04:49:56;36.00;32.25;22.00
50866;PMS7003;36839;51.946;21.002;2022-10-16T04:52:29;35.00;32.00;22.00
50866;PMS7003;36839;51.946;21.002;2022-10-16T04:54:58;37.25;33.25;21.75
50866;PMS7003;36839;51.946;21.002;2022-10-16T04:57:29;43.50;34.50;23.00
50866;PMS7003;36839;51.946;21.002;2022-10-16T04:59:59;36.50;30.50;21.50
50866;PMS7003;36839;51.946;21.002;2022-10-16T05:02:31;32.00;28.00;20.50
50866;PMS7003;36839;51.946;21.002;2022-10-16T05:04:59;32.00;28.75;20.00
50866;PMS7003;36839;51.946;21.002;2022-10-16T05:07:28;38.25;34.75;23.50
50866;PMS7003;36839;51.946;21.002;2022-10-16T05:09:56;33.50;31.00;22.00
50866;PMS7003;36839;51.946;21.002;2022-10-16T05:12:22;33.50;30.00;22.25
50866;PMS7003;36839;51.946;21.002;2022-10-16T05:14:49;34.75;30.75;22.00
50866;PMS7003;36839;51.946;21.002;2022-10-16T05:17:16;42.75;32.25;22.00
50866;PMS7003;36839;51.946;21.002;2022-10-16T05:19:43;34.50;31.25;22.00
50866;PMS7003;36839;51.946;21.002;2022-10-16T05:22:11;38.75;35.00;23.25
50866;PMS7003;36839;51.946;21.002;2022-10-16T05:24:40;37.00;30.50;20.75
50866;PMS7003;36839;51.946;21.002;2022-10-16T05:27:08;45.75;33.75;22.25
50866;PMS7003;36839;51.946;21.002;2022-10-16T05:29:37;38.75;33.50;23.25
50866;PMS7003;36839;51.946;21.002;2022-10-16T05:32:07;35.50;31.75;22.00
50866;PMS7003;36839;51.946;21.002;2022-10-16T05:34:34;38.00;31.50;22.50
50866;PMS7003;36839;51.946;21.002;2022-10-16T05:37:00;39.00;34.75;22.75
50866;PMS7003;36839;51.946;21.002;2022-10-16T05:39:29;44.00;35.00;24.25
50866;PMS7003;36839;51.946;21.002;2022-10-16T05:41:59;38.00;34.50;23.25
50866;PMS7003;36839;51.946;21.002;2022-10-16T05:44:27;41.25;34.00;22.75
50866;PMS7003;36839;51.946;21.002;2022-10-16T05:46:55;35.25;32.75;23.00
50866;PMS7003;36839;51.946;21.002;2022-10-16T05:49:25;36.25;31.00;21.50
50866;PMS7003;36839;51.946;21.002;2022-10-16T05:51:55;41.00;31.75;23.00
50866;PMS7003;36839;51.946;21.002;2022-10-16T05:54:22;38.25;33.00;23.00
50866;PMS7003;36839;51.946;21.002;2022-10-16T05:56:50;34.50;32.25;22.50
50866;PMS7003;36839;51.946;21.002;2022-10-16T05:59:16;37.75;32.50;21.75
50866;PMS7003;36839;51.946;21.002;2022-10-16T06:01:43;26.00;24.50;16.25
50866;PMS7003;36839;51.946;21.002;2022-10-16T06:04:11;53.00;43.50;31.00
50866;PMS7003;36839;51.946;21.002;2022-10-16T06:06:38;49.25;37.75;25.75
50866;PMS7003;36839;51.946;21.002;2022-10-16T06:09:07;42.00;34.00;23.50
50866;PMS7003;36839;51.946;21.002;2022-10-16T06:11:37;43.50;35.50;23.25
50866;PMS7003;36839;51.946;21.002;2022-10-16T06:14:04;44.50;34.00;24.00
50866;PMS7003;36839;51.946;21.002;2022-10-16T06:16:34;35.75;32.50;22.75
50866;PMS7003;36839;51.946;21.002;2022-10-16T06:19:02;43.50;35.25;22.75
50866;PMS7003;36839;51.946;21.002;2022-10-16T06:21:41;40.25;35.75;23.75
50866;PMS7003;36839;51.946;21.002;2022-10-16T06:24:13;44.25;35.00;24.25
50866;PMS7003;36839;51.946;21.002;2022-10-16T06:26:41;40.25;33.50;22.75
50866;PMS7003;36839;51.946;21.002;2022-10-16T06:29:08;44.75;37.75;23.75
50866;PMS7003;36839;51.946;21.002;2022-10-16T06:31:34;47.00;36.00;24.25
50866;PMS7003;36839;51.946;21.002;2022-10-16T06:34:03;43.00;34.50;23.75
50866;PMS7003;36839;51.946;21.002;2022-10-16T06:36:34;36.75;32.50;22.00
50866;PMS7003;36839;51.946;21.002;2022-10-16T06:39:02;44.25;35.25;24.75
50866;PMS7003;36839;51.946;21.002;2022-10-16T06:41:32;35.50;31.75;22.25
50866;PMS7003;36839;51.946;21.002;2022-10-16T06:44:04;46.75;36.25;25.25
50866;PMS7003;36839;51.946;21.002;2022-10-16T06:46:36;43.00;34.75;21.75
50866;PMS7003;36839;51.946;21.002;2022-10-16T06:49:04;44.25;36.25;25.00
50866;PMS7003;36839;51.946;21.002;2022-10-16T06:51:30;39.75;35.00;25.50
50866;PMS7003;36839;51.946;21.002;2022-10-16T06:53:59;40.25;33.75;24.25
50866;PMS7003;36839;51.946;21.002;2022-10-16T06:56:26;33.75;30.50;22.75
50866;PMS7003;36839;51.946;21.002;2022-10-16T06:58:56;43.50;37.25;25.25
50866;PMS7003;36839;51.946;21.002;2022-10-16T07:01:24;39.00;35.50;25.00
50866;PMS7003;36839;51.946;21.002;2022-10-16T07:03:54;43.00;34.25;23.75
50866;PMS7003;36839;51.946;21.002;2022-10-16T07:06:25;43.50;36.00;26.00
50866;PMS7003;36839;51.946;21.002;2022-10-16T07:08:54;42.00;33.75;24.75
50866;PMS7003;36839;51.946;21.002;2022-10-16T07:11:21;43.75;37.25;26.00
50866;PMS7003;36839;51.946;21.002;2022-10-16T07:13:50;43.25;37.00;25.50
50866;PMS7003;36839;51.946;21.002;2022-10-16T07:16:24;37.50;32.25;20.75
50866;PMS7003;36839;51.946;21.002;2022-10-16T07:18:53;34.00;31.25;23.00
50866;PMS7003;36839;51.946;21.002;2022-10-16T07:21:23;36.50;31.50;23.00
50866;PMS7003;36839;51.946;21.002;2022-10-16T07:23:51;33.25;31.00;22.50
50866;PMS7003;36839;51.946;21.002;2022-10-16T07:26:20;37.00;32.75;23.00
50866;PMS7003;36839;51.946;21.002;2022-10-16T07:28:51;38.75;33.00;23.25
50866;PMS7003;36839;51.946;21.002;2022-10-16T07:31:21;35.50;28.75;22.25
50866;PMS7003;36839;51.946;21.002;2022-10-16T07:33:51;32.50;30.25;22.25
50866;PMS7003;36839;51.946;21.002;2022-10-16T07:36:19;37.75;31.50;23.00
50866;PMS7003;36839;51.946;21.002;2022-10-16T07:38:49;43.00;34.75;23.00
50866;PMS7003;36839;51.946;21.002;2022-10-16T07:41:18;35.00;30.25;21.25
50866;PMS7003;36839;51.946;21.002;2022-10-16T07:43:49;41.00;35.00;23.50
50866;PMS7003;36839;51.946;21.002;2022-10-16T07:46:18;41.25;35.50;25.00
50866;PMS7003;36839;51.946;21.002;2022-10-16T07:48:48;44.00;35.00;23.75
50866;PMS7003;36839;51.946;21.002;2022-10-16T07:51:18;39.00;33.25;22.75
50866;PMS7003;36839;51.946;21.002;2022-10-16T07:53:48;39.50;33.75;22.25
50866;PMS7003;36839;51.946;21.002;2022-10-16T07:56:17;41.50;35.50;23.75
50866;PMS7003;36839;51.946;21.002;2022-10-16T07:58:45;32.00;28.50;19.25
50866;PMS7003;36839;51.946;21.002;2022-10-16T08:01:16;40.25;33.75;23.25
50866;PMS7003;36839;51.946;21.002;2022-10-16T08:03:47;40.50;35.00;24.25
50866;PMS7003;36839;51.946;21.002;2022-10-16T08:06:15;35.00;32.75;20.00
50866;PMS7003;36839;51.946;21.002;2022-10-16T08:08:44;36.00;27.75;20.00
50866;PMS7003;36839;51.946;21.002;2022-10-16T08:11:12;30.50;26.00;20.00
50866;PMS7003;36839;51.946;21.002;2022-10-16T08:13:42;29.25;27.50;18.50
50866;PMS7003;36839;51.946;21.002;2022-10-16T08:16:13;36.75;33.00;22.50
50866;PMS7003;36839;51.946;21.002;2022-10-16T08:18:43;34.75;31.75;22.00
50866;PMS7003;36839;51.946;21.002;2022-10-16T08:21:15;36.75;30.75;20.25
50866;PMS7003;36839;51.946;21.002;2022-10-16T08:23:44;30.75;27.50;19.75
50866;PMS7003;36839;51.946;21.002;2022-10-16T08:26:10;30.25;23.25;18.00
50866;PMS7003;36839;51.946;21.002;2022-10-16T08:28:38;36.20;32.20;19.80
50866;PMS7003;36839;51.946;21.002;2022-10-16T08:31:10;23.75;21.25;15.25
50866;PMS7003;36839;51.946;21.002;2022-10-16T08:33:41;30.00;26.50;17.50
50866;PMS7003;36839;51.946;21.002;2022-10-16T08:36:12;27.60;27.60;18.80
50866;PMS7003;36839;51.946;21.002;2022-10-16T08:38:41;32.60;26.40;20.20
50866;PMS7003;36839;51.946;21.002;2022-10-16T08:44:06;27.60;26.60;16.80
50866;PMS7003;36839;51.946;21.002;2022-10-16T08:49:35;32.25;29.25;20.75
50866;PMS7003;36839;51.946;21.002;2022-10-16T08:52:04;33.00;28.60;19.40
50866;PMS7003;36839;51.946;21.002;2022-10-16T08:54:34;25.20;24.60;17.80
50866;PMS7003;36839;51.946;21.002;2022-10-16T08:57:20;26.80;25.40;18.00
50866;PMS7003;36839;51.946;21.002;2022-10-16T08:59:50;24.60;23.80;17.60
50866;PMS7003;36839;51.946;21.002;2022-10-16T09:05:22;29.20;25.80;17.60
50866;PMS7003;36839;51.946;21.002;2022-10-16T09:08:15;32.00;26.40;17.60
50866;PMS7003;36839;51.946;21.002;2022-10-16T09:13:28;33.80;28.00;19.60
50866;PMS7003;36839;51.946;21.002;2022-10-16T09:18:35;31.40;25.60;17.80
50866;PMS7003;36839;51.946;21.002;2022-10-16T09:21:14;24.60;20.80;15.00
50866;PMS7003;36839;51.946;21.002;2022-10-16T09:23:50;30.40;26.00;17.80
50866;PMS7003;36839;51.946;21.002;2022-10-16T09:26:23;25.80;21.60;16.40
50866;PMS7003;36839;51.946;21.002;2022-10-16T09:28:55;26.60;22.00;16.60
50866;PMS7003;36839;51.946;21.002;2022-10-16T09:31:20;32.20;26.20;17.80
50866;PMS7003;36839;51.946;21.002;2022-10-16T09:34:13;24.80;22.00;17.20
50866;PMS7003;36839;51.946;21.002;2022-10-16T09:36:24;23.00;22.00;15.80
50866;PMS7003;36839;51.946;21.002;2022-10-16T09:39:01;33.75;27.25;18.75
50866;PMS7003;36839;51.946;21.002;2022-10-16T09:41:30;28.20;23.20;15.40
50866;PMS7003;36839;51.946;21.002;2022-10-16T09:44:00;26.40;22.40;16.80
50866;PMS7003;36839;51.946;21.002;2022-10-16T09:49:02;27.40;22.00;15.20
50866;PMS7003;36839;51.946;21.002;2022-10-16T09:51:36;24.40;21.80;16.40
50866;PMS7003;36839;51.946;21.002;2022-10-16T09:56:39;22.00;20.40;14.80
50866;PMS7003;36839;51.946;21.002;2022-10-16T09:59:10;28.40;25.00;16.20
50866;PMS7003;36839;51.946;21.002;2022-10-16T10:01:41;18.75;15.50;10.00
50866;PMS7003;36839;51.946;21.002;2022-10-16T10:04:10;27.25;19.25;14.50
50866;PMS7003;36839;51.946;21.002;2022-10-16T10:06:45;27.20;23.00;16.20
50866;PMS7003;36839;51.946;21.002;2022-10-16T10:09:21;26.00;24.00;16.60
50866;PMS7003;36839;51.946;21.002;2022-10-16T10:14:32;26.00;23.80;15.40
50866;PMS7003;36839;51.946;21.002;2022-10-16T10:22:30;35.75;32.25;21.50
50866;PMS7003;36839;51.946;21.002;2022-10-16T10:38:52;23.80;18.60;12.80
50866;PMS7003;36839;51.946;21.002;2022-10-16T10:41:38;20.60;19.60;13.80
50866;PMS7003;36839;51.946;21.002;2022-10-16T10:46:50;23.60;20.40;14.80
50866;PMS7003;36839;51.946;21.002;2022-10-16T10:57:02;23.40;17.60;12.40
50866;PMS7003;36839;51.946;21.002;2022-10-16T11:02:15;18.80;18.80;13.20
50866;PMS7003;36839;51.946;21.002;2022-10-16T11:05:50;0.00;0.00;0.00
50866;PMS7003;36839;51.946;21.002;2022-10-16T11:07:39;1.00;1.00;0.00
50866;PMS7003;36839;51.946;21.002;2022-10-16T11:10:12;0.00;0.00;0.00
50866;PMS7003;36839;51.946;21.002;2022-10-16T11:12:51;0.00;0.00;0.00
50866;PMS7003;36839;51.946;21.002;2022-10-16T11:15:34;4.00;4.00;4.00
50866;PMS7003;36839;51.946;21.002;2022-10-16T11:18:12;0.00;0.00;0.00
50866;PMS7003;36839;51.946;21.002;2022-10-16T11:21:01;0.00;0.00;0.00
50866;PMS7003;36839;51.946;21.002;2022-10-16T11:23:29;0.00;0.00;0.00
50866;PMS7003;36839;51.946;21.002;2022-10-16T11:26:00;0.00;0.00;0.00
50866;PMS7003;36839;51.946;21.002;2022-10-16T11:28:37;0.00;0.00;0.00
50866;PMS7003;36839;51.946;21.002;2022-10-16T11:31:27;2.00;2.00;2.00
50866;PMS7003;36839;51.946;21.002;2022-10-16T11:34:11;0.00;0.00;0.00
50866;PMS7003;36839;51.946;21.002;2022-10-16T11:36:56;0.00;0.00;0.00
50866;PMS7003;36839;51.946;21.002;2022-10-16T11:39:31;0.00;0.00;0.00
50866;PMS7003;36839;51.946;21.002;2022-10-16T11:50:06;0.00;0.00;0.00
50866;PMS7003;36839;51.946;21.002;2022-10-16T11:52:40;0.00;0.00;0.00
50866;PMS7003;36839;51.946;21.002;2022-10-16T11:55:16;0.00;0.00;0.00
50866;PMS7003;36839;51.946;21.002;2022-10-16T11:57:49;0.50;0.50;0.50
50866;PMS7003;36839;51.946;21.002;2022-10-16T12:08:18;0.00;0.00;0.00
50866;PMS7003;36839;51.946;21.002;2022-10-16T12:10:49;0.00;0.00;0.00
50866;PMS7003;36839;51.946;21.002;2022-10-16T12:13:39;0.00;0.00;0.00
50866;PMS7003;36839;51.946;21.002;2022-10-16T12:16:05;1.00;1.00;1.00
50866;PMS7003;36839;51.946;21.002;2022-10-16T12:18:41;0.00;0.00;0.00
50866;PMS7003;36839;51.946;21.002;2022-10-16T12:21:12;1.00;1.00;1.00
50866;PMS7003;36839;51.946;21.002;2022-10-16T12:23:54;0.00;0.00;0.00
50866;PMS7003;36839;51.946;21.002;2022-10-16T12:26:31;0.50;0.50;0.50
50866;PMS7003;36839;51.946;21.002;2022-10-16T12:28:57;0.00;0.00;0.00
50866;PMS7003;36839;51.946;21.002;2022-10-16T12:31:34;0.00;0.00;0.00
50866;PMS7003;36839;51.946;21.002;2022-10-16T12:33:58;0.00;0.00;0.00
50866;PMS7003;36839;51.946;21.002;2022-10-16T12:36:32;0.00;0.00;0.00
50866;PMS7003;36839;51.946;21.002;2022-10-16T12:39:02;0.00;0.00;0.00
50866;PMS7003;36839;51.946;21.002;2022-10-16T12:41:31;0.00;0.00;0.00
50866;PMS7003;36839;51.946;21.002;2022-10-16T12:44:03;0.00;0.00;0.00
50866;PMS7003;36839;51.946;21.002;2022-10-16T12:51:43;0.00;0.00;0.00
50866;PMS7003;36839;51.946;21.002;2022-10-16T12:54:12;0.00;0.00;0.00
50866;PMS7003;36839;51.946;21.002;2022-10-16T12:59:35;0.00;0.00;0.00
50866;PMS7003;36839;51.946;21.002;2022-10-16T13:18:14;0.00;0.00;0.00
50866;PMS7003;36839;51.946;21.002;2022-10-16T13:23:42;0.00;0.00;0.00
50866;PMS7003;36839;51.946;21.002;2022-10-16T13:26:24;0.00;0.00;0.00
50866;PMS7003;36839;51.946;21.002;2022-10-16T13:28:57;0.00;0.00;0.00
50866;PMS7003;36839;51.946;21.002;2022-10-16T13:31:28;0.00;0.00;0.00
50866;PMS7003;36839;51.946;21.002;2022-10-16T13:34:00;0.00;0.00;0.00
50866;PMS7003;36839;51.946;21.002;2022-10-16T13:36:34;0.00;0.00;0.00
50866;PMS7003;36839;51.946;21.002;2022-10-16T13:39:10;0.00;0.00;0.00
50866;PMS7003;36839;51.946;21.002;2022-10-16T13:41:39;0.00;0.00;0.00
50866;PMS7003;36839;51.946;21.002;2022-10-16T13:44:18;0.00;0.00;0.00
50866;PMS7003;36839;51.946;21.002;2022-10-16T13:46:43;0.00;0.00;0.00
50866;PMS7003;36839;51.946;21.002;2022-10-16T13:49:15;0.00;0.00;0.00
50866;PMS7003;36839;51.946;21.002;2022-10-16T13:51:55;0.00;0.00;0.00
50866;PMS7003;36839;51.946;21.002;2022-10-16T13:54:27;0.00;0.00;0.00
50866;PMS7003;36839;51.946;21.002;2022-10-16T13:57:04;0.00;0.00;0.00
50866;PMS7003;36839;51.946;21.002;2022-10-16T13:59:36;0.00;0.00;0.00
50866;PMS7003;36839;51.946;21.002;2022-10-16T14:02:10;0.00;0.00;0.00
50866;PMS7003;36839;51.946;21.002;2022-10-16T14:04:40;0.00;0.00;0.00
50866;PMS7003;36839;51.946;21.002;2022-10-16T14:07:11;0.00;0.00;0.00
50866;PMS7003;36839;51.946;21.002;2022-10-16T14:09:41;0.00;0.00;0.00
50866;PMS7003;36839;51.946;21.002;2022-10-16T14:12:14;0.00;0.00;0.00
50866;PMS7003;36839;51.946;21.002;2022-10-16T14:14:44;0.00;0.00;0.00
50866;PMS7003;36839;51.946;21.002;2022-10-16T14:17:18;0.00;0.00;0.00
50866;PMS7003;36839;51.946;21.002;2022-10-16T14:19:46;0.00;0.00;0.00
50866;PMS7003;36839;51.946;21.002;2022-10-16T14:24:50;0.00;0.00;0.00
50866;PMS7003;36839;51.946;21.002;2022-10-16T14:27:28;0.00;0.00;0.00
50866;PMS7003;36839;51.946;21.002;2022-10-16T14:30:14;0.00;0.00;0.00
50866;PMS7003;36839;51.946;21.002;2022-10-16T14:32:58;0.00;0.00;0.00
50866;PMS7003;36839;51.946;21.002;2022-10-16T14:35:34;0.00;0.00;0.00
50866;PMS7003;36839;51.946;21.002;2022-10-16T14:38:02;0.00;0.00;0.00
50866;PMS7003;36839;51.946;21.002;2022-10-16T14:40:35;0.00;0.00;0.00
50866;PMS7003;36839;51.946;21.002;2022-10-16T14:43:05;0.00;0.00;0.00
50866;PMS7003;36839;51.946;21.002;2022-10-16T14:45:34;0.00;0.00;0.00
50866;PMS7003;36839;51.946;21.002;2022-10-16T14:48:03;0.00;0.00;0.00
50866;PMS7003;36839;51.946;21.002;2022-10-16T14:50:31;0.00;0.00;0.00
50866;PMS7003;36839;51.946;21.002;2022-10-16T14:52:58;0.00;0.00;0.00
50866;PMS7003;36839;51.946;21.002;2022-10-16T14:55:26;0.00;0.00;0.00
50866;PMS7003;36839;51.946;21.002;2022-10-16T14:57:53;0.00;0.00;0.00
50866;PMS7003;36839;51.946;21.002;2022-10-16T15:00:22;0.00;0.00;0.00
50866;PMS7003;36839;51.946;21.002;2022-10-16T15:02:49;0.00;0.00;0.00
50866;PMS7003;36839;51.946;21.002;2022-10-16T15:05:17;0.00;0.00;0.00
50866;PMS7003;36839;51.946;21.002;2022-10-16T15:07:53;0.00;0.00;0.00
50866;PMS7003;36839;51.946;21.002;2022-10-16T15:10:21;0.00;0.00;0.00
50866;PMS7003;36839;51.946;21.002;2022-10-16T15:12:49;0.00;0.00;0.00
50866;PMS7003;36839;51.946;21.002;2022-10-16T15:15:28;0.00;0.00;0.00
50866;PMS7003;36839;51.946;21.002;2022-10-16T15:17:58;0.00;0.00;0.00
50866;PMS7003;36839;51.946;21.002;2022-10-16T15:20:29;0.00;0.00;0.00
50866;PMS7003;36839;51.946;21.002;2022-10-16T15:23:03;0.00;0.00;0.00
50866;PMS7003;36839;51.946;21.002;2022-10-16T15:25:42;29.75;29.75;24.50
50866;PMS7003;36839;51.946;21.002;2022-10-16T15:28:11;4.00;4.00;4.00
50866;PMS7003;36839;51.946;21.002;2022-10-16T15:30:41;0.00;0.00;0.00
50866;PMS7003;36839;51.946;21.002;2022-10-16T15:33:17;0.00;0.00;0.00
50866;PMS7003;36839;51.946;21.002;2022-10-16T15:35:48;0.00;0.00;0.00
50866;PMS7003;36839;51.946;21.002;2022-10-16T15:38:20;0.00;0.00;0.00
50866;PMS7003;36839;51.946;21.002;2022-10-16T15:40:49;0.00;0.00;0.00
50866;PMS7003;36839;51.946;21.002;2022-10-16T15:43:19;0.00;0.00;0.00
50866;PMS7003;36839;51.946;21.002;2022-10-16T15:45:58;10.00;10.00;10.00
50866;PMS7003;36839;51.946;21.002;2022-10-16T15:48:23;0.00;0.00;0.00
50866;PMS7003;36839;51.946;21.002;2022-10-16T15:50:51;0.00;0.00;0.00
50866;PMS7003;36839;51.946;21.002;2022-10-16T15:53:24;0.00;0.00;0.00
50866;PMS7003;36839;51.946;21.002;2022-10-16T15:55:56;0.00;0.00;0.00